sensor_id;sensor_type;location;lat;lon;timestamp;pressure;altitude;pressure_sealevel;temperature;humidity
75460;BME280;64039;53.060;9.342;2022-10-16T00:00:56;100688.59;;;11.59;100.00
75460;BME280;64039;53.060;9.342;2022-10-16T00:03:22;100697.47;;;11.70;100.00
75460;BME280;64039;53.060;9.342;2022-10-16T00:05:51;100694.78;;;11.66;100.00
75460;BME280;64039;53.060;9.342;2022-10-16T00:08:16;100692.13;;;11.61;100.00
75460;BME280;64039;53.060;9.342;2022-10-16T00:10:41;100694.72;;;11.61;100.00
75460;BME280;64039;53.060;9.342;2022-10-16T00:13:07;100695.69;;;11.66;100.00
75460;BME280;64039;53.060;9.342;2022-10-16T00:15:36;100692.09;;;11.58;100.00
75460;BME280;64039;53.060;9.342;2022-10-16T00:18:02;100698.22;;;11.61;100.00
75460;BME280;64039;53.060;9.342;2022-10-16T00:20:28;100699.03;;;11.57;100.00
75460;BME280;64039;53.060;9.342;2022-10-16T00:22:53;100705.78;;;11.46;100.00
75460;BME280;64039;53.060;9.342;2022-10-16T00:25:19;100700.63;;;11.47;100.00
75460;BME280;64039;53.060;9.342;2022-10-16T00:27:44;100707.59;;;11.48;100.00
75460;BME280;64039;53.060;9.342;2022-10-16T00:30:10;100707.59;;;11.50;100.00
75460;BME280;64039;53.060;9.342;2022-10-16T00:32:36;100703.31;;;11.54;100.00
75460;BME280;64039;53.060;9.342;2022-10-16T00:35:01;100705.94;;;11.55;100.00
75460;BME280;64039;53.060;9.342;2022-10-16T00:37:29;100712.13;;;11.63;100.00
75460;BME280;64039;53.060;9.342;2022-10-16T00:39:54;100712.81;;;11.50;100.00
75460;BME280;64039;53.060;9.342;2022-10-16T00:42:20;100714.50;;;11.46;100.00
75460;BME280;64039;53.060;9.342;2022-10-16T00:44:50;100717.09;;;11.45;100.00
75460;BME280;64039;53.060;9.342;2022-10-16T00:47:29;100715.34;;;11.45;100.00
75460;BME280;64039;53.060;9.342;2022-10-16T00:52:50;100723.03;;;11.38;100.00
75460;BME280;64039;53.060;9.342;2022-10-16T00:55:19;100720.38;;;11.33;100.00
75460;BME280;64039;53.060;9.342;2022-10-16T00:57:48;100728.25;;;11.38;100.00
75460;BME280;64039;53.060;9.342;2022-10-16T01:00:24;100731.72;;;11.37;100.00
75460;BME280;64039;53.060;9.342;2022-10-16T01:02:54;100730.81;;;11.35;100.00
75460;BME280;64039;53.060;9.342;2022-10-16T01:05:23;100730.00;;;11.39;100.00
75460;BME280;64039;53.060;9.342;2022-10-16T01:08:09;100730.03;;;11.40;100.00
75460;BME280;64039;53.060;9.342;2022-10-16T01:10:40;100723.84;;;11.35;100.00
75460;BME280;64039;53.060;9.342;2022-10-16T01:13:18;100733.41;;;11.35;100.00
75460;BME280;64039;53.060;9.342;2022-10-16T01:16:05;100729.22;;;11.44;100.00
75460;BME280;64039;53.060;9.342;2022-10-16T01:18:40;100726.59;;;11.41;100.00
75460;BME280;64039;53.060;9.342;2022-10-16T01:21:11;100731.75;;;11.40;100.00
75460;BME280;64039;53.060;9.342;2022-10-16T01:24:08;100719.56;;;11.39;100.00
75460;BME280;64039;53.060;9.342;2022-10-16T01:30:07;100726.38;;;11.29;100.00
75460;BME280;64039;53.060;9.342;2022-10-16T01:32:41;100726.31;;;11.26;100.00
75460;BME280;64039;53.060;9.342;2022-10-16T01:35:21;100726.38;;;11.29;100.00
75460;BME280;64039;53.060;9.342;2022-10-16T01:40:20;100736.81;;;11.30;100.00
75460;BME280;64039;53.060;9.342;2022-10-16T01:42:53;100737.53;;;11.22;100.00
75460;BME280;64039;53.060;9.342;2022-10-16T01:45:21;100738.38;;;11.19;100.00
75460;BME280;64039;53.060;9.342;2022-10-16T01:47:48;100740.94;;;11.17;100.00
75460;BME280;64039;53.060;9.342;2022-10-16T01:50:16;100739.97;;;11.11;100.00
75460;BME280;64039;53.060;9.342;2022-10-16T01:52:45;100730.44;;;11.13;100.00
75460;BME280;64039;53.060;9.342;2022-10-16T01:55:19;100740.72;;;11.05;100.00
75460;BME280;64039;53.060;9.342;2022-10-16T01:57:49;100739.84;;;11.05;100.00
75460;BME280;64039;53.060;9.342;2022-10-16T02:00:19;100730.22;;;11.00;100.00
75460;BME280;64039;53.060;9.342;2022-10-16T02:02:49;100737.22;;;11.03;100.00
75460;BME280;64039;53.060;9.342;2022-10-16T02:07:43;100743.22;;;10.99;100.00
75460;BME280;64039;53.060;9.342;2022-10-16T02:10:09;100738.72;;;10.92;100.00
75460;BME280;64039;53.060;9.342;2022-10-16T02:12:37;100742.16;;;10.88;100.00
75460;BME280;64039;53.060;9.342;2022-10-16T02:15:05;100743.84;;;10.85;100.00
75460;BME280;64039;53.060;9.342;2022-10-16T02:17:31;100744.75;;;10.88;100.00
75460;BME280;64039;53.060;9.342;2022-10-16T02:20:00;100735.19;;;10.88;100.00
75460;BME280;64039;53.060;9.342;2022-10-16T02:25:03;100740.47;;;10.90;100.00
75460;BME280;64039;53.060;9.342;2022-10-16T02:27:34;100741.94;;;10.77;100.00
75460;BME280;64039;53.060;9.342;2022-10-16T02:30:15;100746.34;;;10.79;100.00
75460;BME280;64039;53.060;9.342;2022-10-16T02:32:47;100742.00;;;10.80;100.00
75460;BME280;64039;53.060;9.342;2022-10-16T02:35:15;100745.28;;;10.69;100.00
75460;BME280;64039;53.060;9.342;2022-10-16T02:37:42;100748.00;;;10.76;100.00
75460;BME280;64039;53.060;9.342;2022-10-16T02:40:08;100747.00;;;10.70;100.00
75460;BME280;64039;53.060;9.342;2022-10-16T02:42:36;100743.56;;;10.72;100.00
75460;BME280;64039;53.060;9.342;2022-10-16T02:45:03;100745.31;;;10.73;100.00
75460;BME280;64039;53.060;9.342;2022-10-16T02:47:28;100746.97;;;10.67;100.00
75460;BME280;64039;53.060;9.342;2022-10-16T02:49:54;100735.47;;;10.56;100.00
75460;BME280;64039;53.060;9.342;2022-10-16T02:52:22;100731.25;;;10.63;100.00
75460;BME280;64039;53.060;9.342;2022-10-16T02:54:49;100732.84;;;10.56;100.00
75460;BME280;64039;53.060;9.342;2022-10-16T02:57:15;100733.75;;;10.57;100.00
75460;BME280;64039;53.060;9.342;2022-10-16T02:59:40;100735.41;;;10.53;100.00
75460;BME280;64039;53.060;9.342;2022-10-16T03:02:06;100735.44;;;10.54;100.00
75460;BME280;64039;53.060;9.342;2022-10-16T03:04:31;100741.31;;;10.46;100.00
75460;BME280;64039;53.060;9.342;2022-10-16T03:06:57;100736.28;;;10.53;100.00
75460;BME280;64039;53.060;9.342;2022-10-16T03:09:22;100747.63;;;10.56;100.00
75460;BME280;64039;53.060;9.342;2022-10-16T03:11:48;100740.66;;;10.56;100.00
75460;BME280;64039;53.060;9.342;2022-10-16T03:14:13;100742.53;;;10.63;100.00
75460;BME280;64039;53.060;9.342;2022-10-16T03:16:39;100738.88;;;10.52;100.00
75460;BME280;64039;53.060;9.342;2022-10-16T03:19:04;100741.50;;;10.55;100.00
75460;BME280;64039;53.060;9.342;2022-10-16T03:21:30;100745.69;;;10.47;100.00
75460;BME280;64039;53.060;9.342;2022-10-16T03:23:56;100748.19;;;10.42;100.00
75460;BME280;64039;53.060;9.342;2022-10-16T03:26:21;100743.09;;;10.47;100.00
75460;BME280;64039;53.060;9.342;2022-10-16T03:28:47;100739.72;;;10.52;100.00
75460;BME280;64039;53.060;9.342;2022-10-16T03:31:12;100748.34;;;10.48;100.00
75460;BME280;64039;53.060;9.342;2022-10-16T03:33:38;100737.00;;;10.45;100.00
75460;BME280;64039;53.060;9.342;2022-10-16T03:36:03;100744.00;;;10.49;100.00
75460;BME280;64039;53.060;9.342;2022-10-16T03:38:29;100746.63;;;10.50;100.00
75460;BME280;64039;53.060;9.342;2022-10-16T03:40:54;100744.97;;;10.54;100.00
75460;BME280;64039;53.060;9.342;2022-10-16T03:43:20;100751.97;;;10.57;100.00
75460;BME280;64039;53.060;9.342;2022-10-16T03:45:45;100754.44;;;10.50;100.00
75460;BME280;64039;53.060;9.342;2022-10-16T03:48:11;100747.50;;;10.51;100.00
75460;BME280;64039;53.060;9.342;2022-10-16T03:50:36;100758.66;;;10.45;100.00
75460;BME280;64039;53.060;9.342;2022-10-16T03:53:02;100759.53;;;10.46;100.00
75460;BME280;64039;53.060;9.342;2022-10-16T03:55:28;100763.13;;;10.51;100.00
75460;BME280;64039;53.060;9.342;2022-10-16T03:57:53;100751.06;;;10.54;100.00
75460;BME280;64039;53.060;9.342;2022-10-16T04:00:19;100762.13;;;10.46;100.00
75460;BME280;64039;53.060;9.342;2022-10-16T04:02:44;100756.25;;;10.54;100.00
75460;BME280;64039;53.060;9.342;2022-10-16T04:05:11;100752.66;;;10.48;100.00
75460;BME280;64039;53.060;9.342;2022-10-16T04:07:36;100761.44;;;10.53;100.00
75460;BME280;64039;53.060;9.342;2022-10-16T04:10:04;100769.19;;;10.51;100.00
75460;BME280;64039;53.060;9.342;2022-10-16T04:12:30;100771.69;;;10.47;100.00
75460;BME280;64039;53.060;9.342;2022-10-16T04:14:55;100770.88;;;10.48;100.00
75460;BME280;64039;53.060;9.342;2022-10-16T04:17:21;100777.72;;;10.43;100.00
75460;BME280;64039;53.060;9.342;2022-10-16T04:19:46;100790.00;;;10.50;100.00
75460;BME280;64039;53.060;9.342;2022-10-16T04:22:12;100790.03;;;10.51;100.00
75460;BME280;64039;53.060;9.342;2022-10-16T04:24:38;100796.88;;;10.46;100.00
75460;BME280;64039;53.060;9.342;2022-10-16T04:27:03;100809.22;;;10.57;100.00
75460;BME280;64039;53.060;9.342;2022-10-16T04:29:29;100810.16;;;10.60;100.00
75460;BME280;64039;53.060;9.342;2022-10-16T04:31:54;100802.38;;;10.60;100.00
75460;BME280;64039;53.060;9.342;2022-10-16T04:34:20;100792.78;;;10.59;100.00
75460;BME280;64039;53.060;9.342;2022-10-16T04:36:48;100784.97;;;10.58;100.00
75460;BME280;64039;53.060;9.342;2022-10-16T04:39:17;100792.16;;;10.69;100.00
75460;BME280;64039;53.060;9.342;2022-10-16T04:41:42;100794.59;;;10.63;100.00
75460;BME280;64039;53.060;9.342;2022-10-16T04:44:08;100798.22;;;10.70;100.00
75460;BME280;64039;53.060;9.342;2022-10-16T04:46:33;100798.19;;;10.68;100.00
75460;BME280;64039;53.060;9.342;2022-10-16T04:48:59;100798.13;;;10.65;100.00
75460;BME280;64039;53.060;9.342;2022-10-16T04:51:24;100793.84;;;10.69;100.00
75460;BME280;64039;53.060;9.342;2022-10-16T04:53:51;100793.09;;;10.73;100.00
75460;BME280;64039;53.060;9.342;2022-10-16T04:56:16;100797.34;;;10.69;100.00
75460;BME280;64039;53.060;9.342;2022-10-16T04:58:42;100795.63;;;10.70;100.00
75460;BME280;64039;53.060;9.342;2022-10-16T05:01:07;100800.06;;;10.74;100.00
75460;BME280;64039;53.060;9.342;2022-10-16T05:03:32;100801.72;;;10.72;100.00
75460;BME280;64039;53.060;9.342;2022-10-16T05:05:58;100803.53;;;10.75;100.00
75460;BME280;64039;53.060;9.342;2022-10-16T05:08:23;100805.09;;;10.68;100.00
75460;BME280;64039;53.060;9.342;2022-10-16T05:10:49;100812.88;;;10.65;100.00
75460;BME280;64039;53.060;9.342;2022-10-16T05:13:14;100821.66;;;10.70;100.00
75460;BME280;64039;53.060;9.342;2022-10-16T05:15:40;100820.06;;;10.77;100.00
75460;BME280;64039;53.060;9.342;2022-10-16T05:18:05;100820.88;;;10.74;100.00
75460;BME280;64039;53.060;9.342;2022-10-16T05:20:30;100821.75;;;10.76;100.00
75460;BME280;64039;53.060;9.342;2022-10-16T05:22:56;100815.78;;;10.80;100.00
75460;BME280;64039;53.060;9.342;2022-10-16T05:25:21;100810.59;;;10.82;100.00
75460;BME280;64039;53.060;9.342;2022-10-16T05:27:48;100818.41;;;10.82;100.00
75460;BME280;64039;53.060;9.342;2022-10-16T05:30:14;100810.50;;;10.77;100.00
75460;BME280;64039;53.060;9.342;2022-10-16T05:32:39;100817.59;;;10.84;100.00
75460;BME280;64039;53.060;9.342;2022-10-16T05:35:05;100817.66;;;10.88;100.00
75460;BME280;64039;53.060;9.342;2022-10-16T05:37:32;100821.94;;;10.85;100.00
75460;BME280;64039;53.060;9.342;2022-10-16T05:39:58;100818.28;;;10.76;100.00
75460;BME280;64039;53.060;9.342;2022-10-16T05:42:23;100814.00;;;10.78;100.00
75460;BME280;64039;53.060;9.342;2022-10-16T05:44:49;100816.59;;;10.78;100.00
75460;BME280;64039;53.060;9.342;2022-10-16T05:47:14;100822.69;;;10.80;100.00
75460;BME280;64039;53.060;9.342;2022-10-16T05:49:40;100835.50;;;10.69;100.00
75460;BME280;64039;53.060;9.342;2022-10-16T05:52:05;100831.22;;;10.73;100.00
75460;BME280;64039;53.060;9.342;2022-10-16T05:54:31;100833.91;;;10.74;100.00
75460;BME280;64039;53.060;9.342;2022-10-16T05:56:57;100836.44;;;10.73;100.00
75460;BME280;64039;53.060;9.342;2022-10-16T05:59:22;100844.44;;;10.80;100.00
75460;BME280;64039;53.060;9.342;2022-10-16T06:01:47;100840.16;;;10.84;100.00
75460;BME280;64039;53.060;9.342;2022-10-16T06:04:13;100833.09;;;10.78;100.00
75460;BME280;64039;53.060;9.342;2022-10-16T06:06:38;100832.47;;;10.92;100.00
75460;BME280;64039;53.060;9.342;2022-10-16T06:09:04;100846.47;;;10.95;100.00
75460;BME280;64039;53.060;9.342;2022-10-16T06:11:31;100837.59;;;10.87;100.00
75460;BME280;64039;53.060;9.342;2022-10-16T06:13:59;100850.72;;;10.92;100.00
75460;BME280;64039;53.060;9.342;2022-10-16T06:16:27;100862.00;;;10.91;100.00
75460;BME280;64039;53.060;9.342;2022-10-16T06:18:53;100864.75;;;10.98;100.00
75460;BME280;64039;53.060;9.342;2022-10-16T06:21:23;100856.88;;;10.95;100.00
75460;BME280;64039;53.060;9.342;2022-10-16T06:23:53;100860.47;;;11.02;100.00
75460;BME280;64039;53.060;9.342;2022-10-16T06:26:21;100863.06;;;11.02;100.00
75460;BME280;64039;53.060;9.342;2022-10-16T06:28:48;100869.31;;;11.10;100.00
75460;BME280;64039;53.060;9.342;2022-10-16T06:31:14;100869.38;;;11.12;100.00
75460;BME280;64039;53.060;9.342;2022-10-16T06:33:40;100865.97;;;11.17;100.00
75460;BME280;64039;53.060;9.342;2022-10-16T06:38:34;100879.09;;;11.22;100.00
75460;BME280;64039;53.060;9.342;2022-10-16T06:41:01;100878.34;;;11.28;100.00
75460;BME280;64039;53.060;9.342;2022-10-16T06:43:28;100879.34;;;11.35;100.00
75460;BME280;64039;53.060;9.342;2022-10-16T06:45:58;100880.28;;;11.38;100.00
75460;BME280;64039;53.060;9.342;2022-10-16T06:48:24;100878.63;;;11.42;100.00
75460;BME280;64039;53.060;9.342;2022-10-16T06:51:00;100887.38;;;11.45;100.00
75460;BME280;64039;53.060;9.342;2022-10-16T06:53:28;100889.16;;;11.48;100.00
75460;BME280;64039;53.060;9.342;2022-10-16T06:55:54;100896.28;;;11.58;100.00
75460;BME280;64039;53.060;9.342;2022-10-16T06:58:20;100898.13;;;11.62;100.00
75460;BME280;64039;53.060;9.342;2022-10-16T07:00:46;100900.75;;;11.66;100.00
75460;BME280;64039;53.060;9.342;2022-10-16T07:03:11;100909.47;;;11.66;100.00
75460;BME280;64039;53.060;9.342;2022-10-16T07:05:41;100911.25;;;11.69;100.00
75460;BME280;64039;53.060;9.342;2022-10-16T07:08:08;100913.13;;;11.77;100.00
75460;BME280;64039;53.060;9.342;2022-10-16T07:10:34;100926.34;;;11.87;100.00
75460;BME280;64039;53.060;9.342;2022-10-16T07:13:00;100922.91;;;11.89;100.00
75460;BME280;64039;53.060;9.342;2022-10-16T07:15:26;100927.38;;;11.96;100.00
75460;BME280;64039;53.060;9.342;2022-10-16T07:17:52;100932.75;;;12.03;100.00
75460;BME280;64039;53.060;9.342;2022-10-16T07:20:17;100932.59;;;11.96;100.00
75460;BME280;64039;53.060;9.342;2022-10-16T07:22:43;100934.53;;;12.07;100.00
75460;BME280;64039;53.060;9.342;2022-10-16T07:25:09;100945.91;;;12.10;100.00
75460;BME280;64039;53.060;9.342;2022-10-16T07:27:34;100957.28;;;12.14;100.00
75460;BME280;64039;53.060;9.342;2022-10-16T07:30:00;100955.66;;;12.19;100.00
75460;BME280;64039;53.060;9.342;2022-10-16T07:32:26;100967.03;;;12.26;100.00
75460;BME280;64039;53.060;9.342;2022-10-16T07:34:52;100961.16;;;12.38;100.00
75460;BME280;64039;53.060;9.342;2022-10-16T07:37:17;100973.47;;;12.45;100.00
75460;BME280;64039;53.060;9.342;2022-10-16T07:39:43;100969.97;;;12.45;100.00
75460;BME280;64039;53.060;9.342;2022-10-16T07:42:08;100970.19;;;12.58;100.00
75460;BME280;64039;53.060;9.342;2022-10-16T07:44:34;100973.78;;;12.65;100.00
75460;BME280;64039;53.060;9.342;2022-10-16T07:46:59;100983.38;;;12.66;100.00
75460;BME280;64039;53.060;9.342;2022-10-16T07:49:25;100986.94;;;12.73;100.00
75460;BME280;64039;53.060;9.342;2022-10-16T07:51:50;100983.59;;;12.82;100.00
75460;BME280;64039;53.060;9.342;2022-10-16T07:54:16;100993.41;;;13.01;100.00
75460;BME280;64039;53.060;9.342;2022-10-16T07:56:41;100994.25;;;12.99;100.00
75460;BME280;64039;53.060;9.342;2022-10-16T07:59:07;100990.78;;;13.00;100.00
75460;BME280;64039;53.060;9.342;2022-10-16T08:01:32;100991.78;;;13.10;100.00
75460;BME280;64039;53.060;9.342;2022-10-16T08:03:58;100997.97;;;13.15;100.00
75460;BME280;64039;53.060;9.342;2022-10-16T08:06:23;100996.22;;;13.12;100.00
75460;BME280;64039;53.060;9.342;2022-10-16T08:08:48;101001.41;;;13.11;100.00
75460;BME280;64039;53.060;9.342;2022-10-16T08:11:14;100999.69;;;13.14;100.00
75460;BME280;64039;53.060;9.342;2022-10-16T08:13:40;101004.91;;;13.13;100.00
75460;BME280;64039;53.060;9.342;2022-10-16T08:16:06;101017.25;;;13.21;100.00
75460;BME280;64039;53.060;9.342;2022-10-16T08:18:37;101020.66;;;13.19;100.00
75460;BME280;64039;53.060;9.342;2022-10-16T08:21:04;101016.41;;;13.27;100.00
75460;BME280;64039;53.060;9.342;2022-10-16T08:23:30;101011.47;;;13.44;100.00
75460;BME280;64039;53.060;9.342;2022-10-16T08:26:00;101014.09;;;13.46;100.00
75460;BME280;64039;53.060;9.342;2022-10-16T08:28:27;101017.72;;;13.59;100.00
75460;BME280;64039;53.060;9.342;2022-10-16T08:30:53;101024.72;;;13.61;100.00
75460;BME280;64039;53.060;9.342;2022-10-16T08:33:18;101021.38;;;13.72;100.00
75460;BME280;64039;53.060;9.342;2022-10-16T08:35:51;101025.81;;;13.77;100.00
75460;BME280;64039;53.060;9.342;2022-10-16T08:38:17;101027.63;;;13.84;100.00
75460;BME280;64039;53.060;9.342;2022-10-16T08:40:43;101026.84;;;13.93;100.00
75460;BME280;64039;53.060;9.342;2022-10-16T08:43:30;101024.25;;;13.98;100.00
75460;BME280;64039;53.060;9.342;2022-10-16T08:46:13;101030.44;;;14.02;100.00
75460;BME280;64039;53.060;9.342;2022-10-16T08:48:49;101032.19;;;14.04;100.00
75460;BME280;64039;53.060;9.342;2022-10-16T08:51:22;101033.16;;;14.15;100.00
75460;BME280;64039;53.060;9.342;2022-10-16T08:53:53;101040.16;;;14.17;100.00
75460;BME280;64039;53.060;9.342;2022-10-16T08:56:20;101038.47;;;14.22;100.00
75460;BME280;64039;53.060;9.342;2022-10-16T08:58:46;101052.28;;;14.07;100.00
75460;BME280;64039;53.060;9.342;2022-10-16T09:01:15;101059.28;;;14.08;100.00
75460;BME280;64039;53.060;9.342;2022-10-16T09:12:01;101073.56;;;14.41;100.00
75460;BME280;64039;53.060;9.342;2022-10-16T09:20:43;101066.75;;;14.60;100.00
75460;BME280;64039;53.060;9.342;2022-10-16T09:23:14;101071.25;;;14.73;100.00
75460;BME280;64039;53.060;9.342;2022-10-16T09:25:49;101080.09;;;14.83;100.00
75460;BME280;64039;53.060;9.342;2022-10-16T09:28:16;101076.59;;;14.87;100.00
75460;BME280;64039;53.060;9.342;2022-10-16T09:30:43;101081.00;;;14.91;100.00
75460;BME280;64039;53.060;9.342;2022-10-16T09:33:10;101094.19;;;15.02;100.00
75460;BME280;64039;53.060;9.342;2022-10-16T09:35:39;101100.34;;;15.04;100.00
75460;BME280;64039;53.060;9.342;2022-10-16T09:38:06;101088.16;;;15.14;100.00
75460;BME280;64039;53.060;9.342;2022-10-16T09:40:39;101084.63;;;15.12;100.00
75460;BME280;64039;53.060;9.342;2022-10-16T09:43:23;101095.91;;;14.97;100.00
75460;BME280;64039;53.060;9.342;2022-10-16T09:46:08;101095.06;;;15.01;100.00
75460;BME280;64039;53.060;9.342;2022-10-16T09:48:44;101106.47;;;15.06;100.00
75460;BME280;64039;53.060;9.342;2022-10-16T09:51:37;101112.63;;;15.13;100.00
75460;BME280;64039;53.060;9.342;2022-10-16T09:56:36;101093.44;;;15.17;100.00
75460;BME280;64039;53.060;9.342;2022-10-16T09:59:11;101092.63;;;15.31;100.00
75460;BME280;64039;53.060;9.342;2022-10-16T10:01:39;101094.44;;;15.39;100.00
75460;BME280;64039;53.060;9.342;2022-10-16T10:04:05;101100.66;;;15.59;100.00
75460;BME280;64039;53.060;9.342;2022-10-16T10:06:36;101100.66;;;15.60;100.00
75460;BME280;64039;53.060;9.342;2022-10-16T10:11:57;101107.72;;;15.72;100.00
75460;BME280;64039;53.060;9.342;2022-10-16T10:14:42;101107.75;;;15.81;99.17
75460;BME280;64039;53.060;9.342;2022-10-16T10:17:11;101127.94;;;15.88;97.47
75460;BME280;64039;53.060;9.342;2022-10-16T10:19:55;101114.88;;;16.07;97.13
75460;BME280;64039;53.060;9.342;2022-10-16T10:24:55;101128.06;;;16.27;95.65
75460;BME280;64039;53.060;9.342;2022-10-16T10:28:10;101123.66;;;16.22;94.51
75460;BME280;64039;53.060;9.342;2022-10-16T10:46:20;101141.22;;;16.24;93.85
75460;BME280;64039;53.060;9.342;2022-10-16T10:52:48;101150.72;;;15.94;93.89
75460;BME280;64039;53.060;9.342;2022-10-16T11:06:07;101154.25;;;16.01;94.25
75460;BME280;64039;53.060;9.342;2022-10-16T11:08:45;101157.75;;;16.06;93.26
75460;BME280;64039;53.060;9.342;2022-10-16T11:11:49;101162.09;;;15.99;94.23
75460;BME280;64039;53.060;9.342;2022-10-16T11:14:28;101162.13;;;16.09;94.13
75460;BME280;64039;53.060;9.342;2022-10-16T11:17:04;101159.53;;;16.12;94.31
75460;BME280;64039;53.060;9.342;2022-10-16T11:19:45;101159.59;;;16.29;93.37
75460;BME280;64039;53.060;9.342;2022-10-16T11:22:20;101155.25;;;16.34;91.91
75460;BME280;64039;53.060;9.342;2022-10-16T11:25:11;101158.75;;;16.31;91.92
75460;BME280;64039;53.060;9.342;2022-10-16T11:30:29;101155.25;;;16.32;91.11
75460;BME280;64039;53.060;9.342;2022-10-16T11:36:11;101168.28;;;16.12;90.89
75460;BME280;64039;53.060;9.342;2022-10-16T11:41:42;101177.91;;;16.09;92.91
75460;BME280;64039;53.060;9.342;2022-10-16T11:49:31;101189.47;;;16.63;90.06
75460;BME280;64039;53.060;9.342;2022-10-16T11:55:20;101181.50;;;16.28;88.14
75460;BME280;64039;53.060;9.342;2022-10-16T11:57:53;101191.13;;;16.33;86.89
75460;BME280;64039;53.060;9.342;2022-10-16T12:00:23;101185.03;;;16.36;87.65
75460;BME280;64039;53.060;9.342;2022-10-16T12:08:33;101198.22;;;16.62;87.20
75460;BME280;64039;53.060;9.342;2022-10-16T12:17:04;101196.50;;;16.75;83.81
75460;BME280;64039;53.060;9.342;2022-10-16T12:22:41;101215.81;;;16.87;83.25
75460;BME280;64039;53.060;9.342;2022-10-16T12:25:39;101221.97;;;16.96;81.34
75460;BME280;64039;53.060;9.342;2022-10-16T12:30:40;101221.88;;;16.75;82.51
75460;BME280;64039;53.060;9.342;2022-10-16T12:33:19;101229.81;;;16.81;81.11
75460;BME280;64039;53.060;9.342;2022-10-16T12:35:46;101220.16;;;16.75;81.65
75460;BME280;64039;53.060;9.342;2022-10-16T12:38:18;101231.56;;;16.84;81.93
75460;BME280;64039;53.060;9.342;2022-10-16T12:40:47;101229.78;;;16.76;80.40
75460;BME280;64039;53.060;9.342;2022-10-16T12:43:46;101239.44;;;16.80;80.21
75460;BME280;64039;53.060;9.342;2022-10-16T12:48:39;101248.25;;;16.98;81.22
75460;BME280;64039;53.060;9.342;2022-10-16T12:51:19;101247.38;;;16.99;79.37
75460;BME280;64039;53.060;9.342;2022-10-16T12:53:58;101249.16;;;17.05;78.10
75460;BME280;64039;53.060;9.342;2022-10-16T12:59:44;101250.91;;;17.01;79.49
75460;BME280;64039;53.060;9.342;2022-10-16T13:16:12;101278.81;;;16.57;77.67
75460;BME280;64039;53.060;9.342;2022-10-16T13:24:10;101280.50;;;16.40;76.01
75460;BME280;64039;53.060;9.342;2022-10-16T13:29:04;101282.25;;;16.50;75.06
75460;BME280;64039;53.060;9.342;2022-10-16T13:31:30;101282.28;;;16.59;74.69
75460;BME280;64039;53.060;9.342;2022-10-16T13:33:58;101276.19;;;16.63;74.84
75460;BME280;64039;53.060;9.342;2022-10-16T13:36:30;101286.72;;;16.70;75.16
75460;BME280;64039;53.060;9.342;2022-10-16T13:39:10;101289.31;;;16.66;74.92
75460;BME280;64039;53.060;9.342;2022-10-16T13:41:36;101291.13;;;16.74;76.07
75460;BME280;64039;53.060;9.342;2022-10-16T13:44:03;101296.41;;;16.81;76.44
75460;BME280;64039;53.060;9.342;2022-10-16T13:46:29;101307.78;;;16.85;76.25
75460;BME280;64039;53.060;9.342;2022-10-16T13:49:17;101314.81;;;16.88;75.16
75460;BME280;64039;53.060;9.342;2022-10-16T13:51:56;101304.25;;;16.77;75.78
75460;BME280;64039;53.060;9.342;2022-10-16T13:54:24;101304.22;;;16.60;74.08
75460;BME280;64039;53.060;9.342;2022-10-16T13:56:49;101313.84;;;16.56;74.85
75460;BME280;64039;53.060;9.342;2022-10-16T14:01:49;101332.22;;;16.53;76.88
75460;BME280;64039;53.060;9.342;2022-10-16T14:04:16;101331.28;;;16.45;77.01
75460;BME280;64039;53.060;9.342;2022-10-16T14:06:43;101336.53;;;16.42;77.46
75460;BME280;64039;53.060;9.342;2022-10-16T14:09:27;101342.63;;;16.31;78.96
75460;BME280;64039;53.060;9.342;2022-10-16T14:12:00;101333.91;;;16.40;78.26
75460;BME280;64039;53.060;9.342;2022-10-16T14:14:40;101350.53;;;16.39;78.15
75460;BME280;64039;53.060;9.342;2022-10-16T14:17:13;101346.13;;;16.35;78.53
75460;BME280;64039;53.060;9.342;2022-10-16T14:19:39;101343.44;;;16.29;78.53
75460;BME280;64039;53.060;9.342;2022-10-16T14:22:21;101340.84;;;16.24;79.90
75460;BME280;64039;53.060;9.342;2022-10-16T14:24:50;101346.91;;;16.20;79.39
75460;BME280;64039;53.060;9.342;2022-10-16T14:27:33;101353.06;;;16.24;80.48
75460;BME280;64039;53.060;9.342;2022-10-16T14:30:11;101356.56;;;16.19;80.81
75460;BME280;64039;53.060;9.342;2022-10-16T14:32:40;101361.81;;;16.21;79.06
75460;BME280;64039;53.060;9.342;2022-10-16T14:35:23;101365.28;;;16.17;79.87
75460;BME280;64039;53.060;9.342;2022-10-16T14:37:52;101362.66;;;16.20;79.79
75460;BME280;64039;53.060;9.342;2022-10-16T14:40:21;101361.81;;;16.21;80.34
75460;BME280;64039;53.060;9.342;2022-10-16T14:42:48;101367.06;;;16.21;79.76
75460;BME280;64039;53.060;9.342;2022-10-16T14:45:18;101361.81;;;16.19;79.58
75460;BME280;64039;53.060;9.342;2022-10-16T14:47:49;101369.59;;;16.09;81.10
75460;BME280;64039;53.060;9.342;2022-10-16T14:50:15;101374.84;;;16.07;80.67
75460;BME280;64039;53.060;9.342;2022-10-16T14:52:40;101359.94;;;16.08;82.06
75460;BME280;64039;53.060;9.342;2022-10-16T14:55:07;101366.09;;;16.08;81.80
75460;BME280;64039;53.060;9.342;2022-10-16T14:57:34;101356.47;;;16.06;81.53
75460;BME280;64039;53.060;9.342;2022-10-16T15:00:02;101360.84;;;16.10;81.63
75460;BME280;64039;53.060;9.342;2022-10-16T15:02:35;101371.31;;;16.02;81.34
75460;BME280;64039;53.060;9.342;2022-10-16T15:05:22;101374.78;;;15.98;81.03
75460;BME280;64039;53.060;9.342;2022-10-16T15:07:49;101375.69;;;16.05;81.43